Time;durP1;ratioP1;P1;durP2;ratioP2;P2;SDS_P1;SDS_P2;PMS_P1;PMS_P2;Temp;Humidity;BMP_temperature;BMP_pressure;BME280_temperature;BME280_humidity;BME280_pressure;Samples;Min_cycle;Max_cycle;Signal;HPM_P1;HPM_P2
2022/02/20 00:04:24;;;;;;;74.67;67.33;;;;;;;8.44;100.00;101105.40;2001986;71;32838;-74
2022/02/20 00:10:10;;;;;;;80.13;73.37;;;;;;;8.47;100.00;101097.14;2000280;71;32766;-74
2022/02/20 00:15:54;;;;;;;72.50;65.77;;;;;;;8.56;100.00;101087.20;2016157;71;32878;-75
2022/02/20 00:21:38;;;;;;;75.00;68.73;;;;;;;8.65;100.00;101089.22;2016133;71;32827;-75
2022/02/20 00:27:23;;;;;;;78.77;71.60;;;;;;;8.79;100.00;101077.67;1998127;71;33302;-74
2022/02/20 00:33:07;;;;;;;76.03;69.13;;;;;;;8.88;100.00;101063.61;2010880;71;33345;-73
2022/02/20 00:38:51;;;;;;;69.77;63.70;;;;;;;8.98;100.00;101058.13;2018042;70;33288;-74
2022/02/20 00:44:35;;;;;;;74.63;68.03;;;;;;;9.07;100.00;101044.84;1994507;71;33328;-74
2022/02/20 00:50:20;;;;;;;74.17;67.83;;;;;;;9.10;100.00;101036.02;1998505;71;32835;-73
2022/02/20 00:56:04;;;;;;;75.50;69.03;;;;;;;9.27;100.00;101034.97;2001912;71;32872;-74
2022/02/20 01:01:48;;;;;;;76.90;70.70;;;;;;;9.30;100.00;101001.14;2013165;71;33313;-74
2022/02/20 01:07:31;;;;;;;75.77;69.27;;;;;;;9.41;100.00;100988.41;1994728;71;32804;-74
2022/02/20 01:13:17;;;;;;;76.23;69.87;;;;;;;9.42;100.00;100970.68;2012537;70;32918;-75
2022/02/20 01:19:02;;;;;;;72.97;66.87;;;;;;;9.47;100.00;100976.23;2005236;71;33341;-74
2022/02/20 01:24:46;;;;;;;74.57;68.03;;;;;;;9.55;100.00;100944.35;2003780;71;32776;-74
2022/02/20 01:30:31;;;;;;;73.23;66.93;;;;;;;9.55;100.00;100918.01;2009459;71;32762;-72
2022/02/20 01:36:16;;;;;;;69.10;63.13;;;;;;;9.63;100.00;100895.84;1994886;71;33260;-74
2022/02/20 01:42:00;;;;;;;73.60;67.27;;;;;;;9.72;100.00;100910.80;2010753;71;33477;-75
2022/02/20 01:47:45;;;;;;;70.80;65.27;;;;;;;9.79;100.00;100915.52;1999693;71;32872;-73
2022/02/20 01:53:29;;;;;;;75.07;68.97;;;;;;;9.88;100.00;100933.28;1997887;71;32979;-73
2022/02/20 01:59:14;;;;;;;74.17;67.97;;;;;;;9.98;100.00;100949.90;2007530;71;32908;-75
2022/02/20 02:04:59;;;;;;;67.50;62.03;;;;;;;10.03;100.00;100939.64;2005509;71;32782;-74
2022/02/20 02:10:44;;;;;;;68.17;62.50;;;;;;;10.13;100.00;100940.19;2018045;70;33285;-75
2022/02/20 02:16:28;;;;;;;69.43;63.67;;;;;;;10.17;100.00;100937.70;2016014;71;33039;-73
2022/02/20 02:22:12;;;;;;;72.57;66.50;;;;;;;10.19;100.00;100921.58;2009289;71;33398;-75
2022/02/20 02:27:57;;;;;;;68.50;63.13;;;;;;;10.23;100.00;100927.69;1996581;71;33245;-73
2022/02/20 02:33:41;;;;;;;68.27;62.50;;;;;;;10.31;100.00;100916.59;2008927;71;32948;-74
2022/02/20 02:39:25;;;;;;;69.93;63.93;;;;;;;10.36;100.00;100901.27;2005433;71;33296;-74
2022/02/20 02:45:11;;;;;;;69.10;63.40;;;;;;;10.40;100.00;100881.55;2012882;71;32898;-74
2022/02/20 02:50:55;;;;;;;73.93;68.17;;;;;;;10.47;100.00;100867.66;2017788;71;32882;-74
2022/02/20 02:56:40;;;;;;;71.17;65.20;;;;;;;10.53;100.00;100851.77;2014488;71;32940;-75
2022/02/20 03:02:24;;;;;;;71.00;65.50;;;;;;;10.55;100.00;100844.56;2007023;71;32977;-74
2022/02/20 03:08:08;;;;;;;73.07;67.20;;;;;;;10.63;100.00;100838.41;2016234;71;32983;-73
2022/02/20 03:13:53;;;;;;;68.80;63.00;;;;;;;10.75;100.00;100840.28;1999148;71;32764;-77
2022/02/20 03:19:38;;;;;;;69.30;63.37;;;;;;;10.79;100.00;100840.80;2007214;71;32823;-75
2022/02/20 03:25:22;;;;;;;68.03;62.60;;;;;;;10.81;100.00;100838.59;2014338;71;33437;-73
2022/02/20 03:31:06;;;;;;;68.27;63.27;;;;;;;10.91;100.00;100860.73;1997960;71;32840;-74
2022/02/20 03:36:50;;;;;;;70.00;64.60;;;;;;;11.00;100.00;100855.95;2012579;70;33311;-73
2022/02/20 03:42:34;;;;;;;74.17;68.60;;;;;;;11.00;100.00;100849.84;2013009;71;32831;-74
2022/02/20 03:48:19;;;;;;;70.23;64.73;;;;;;;11.07;100.00;100858.71;2016364;71;33402;-74
2022/02/20 03:54:03;;;;;;;74.07;68.17;;;;;;;11.07;100.00;100856.48;2003737;71;32781;-74
2022/02/20 03:59:47;;;;;;;70.70;64.77;;;;;;;11.02;100.00;100853.18;2002076;71;33276;-75
2022/02/20 04:05:32;;;;;;;71.27;65.53;;;;;;;10.92;100.00;100837.39;2003486;71;33000;-73
2022/02/20 04:11:16;;;;;;;76.43;70.10;;;;;;;10.91;100.00;100842.67;2003297;71;32941;-75
2022/02/20 04:17:00;;;;;;;72.07;65.50;;;;;;;10.91;100.00;100835.72;2007081;71;32992;-75
2022/02/20 04:22:45;;;;;;;69.00;62.60;;;;;;;10.89;100.00;100857.98;2012607;71;32925;-76
2022/02/20 04:28:32;;;;;;;74.77;67.97;;;;;;;10.91;100.00;100866.30;2000375;71;32839;-75
2022/02/20 04:34:16;;;;;;;69.97;64.03;;;;;;;11.04;100.00;100865.41;2001996;70;32776;-74
2022/02/20 04:40:01;;;;;;;69.47;62.93;;;;;;;11.02;100.00;100837.06;1991304;71;32772;-75
2022/02/20 04:45:45;;;;;;;71.13;64.17;;;;;;;11.03;100.00;100835.95;2011064;71;32873;-74
2022/02/20 04:51:29;;;;;;;75.70;69.03;;;;;;;11.06;100.00;100817.29;2005129;71;33451;-75
2022/02/20 04:57:13;;;;;;;74.17;67.00;;;;;;;11.02;100.00;100830.11;2008849;71;33391;-75
2022/02/20 05:02:57;;;;;;;73.40;66.30;;;;;;;11.09;100.00;100839.78;2023966;70;33365;-73
2022/02/20 05:08:44;;;;;;;71.97;65.20;;;;;;;11.07;100.00;100839.25;2005051;71;32842;-73
2022/02/20 05:14:28;;;;;;;72.30;65.87;;;;;;;11.08;100.00;100822.81;2002032;71;32940;-75
2022/02/20 05:20:13;;;;;;;77.20;70.13;;;;;;;11.09;100.00;100771.67;1996555;71;33282;-75
2022/02/20 05:25:58;;;;;;;72.63;65.87;;;;;;;11.18;100.00;100770.48;1996600;71;33210;-74
2022/02/20 05:31:42;;;;;;;75.37;68.47;;;;;;;11.19;100.00;100753.53;2005095;71;33292;-74
2022/02/20 05:37:26;;;;;;;72.47;65.77;;;;;;;11.23;100.00;100752.37;1998048;71;33306;-73
2022/02/20 05:43:11;;;;;;;74.10;68.10;;;;;;;11.28;100.00;100773.19;1998866;71;33405;-73
2022/02/20 05:48:55;;;;;;;78.00;71.03;;;;;;;11.32;100.00;100770.92;2017915;71;32924;-75
2022/02/20 05:54:39;;;;;;;75.10;68.00;;;;;;;11.31;100.00;100759.53;1940583;74;32953;-74
2022/02/20 06:00:25;;;;;;;77.20;69.67;;;;;;;11.34;100.00;100755.32;2014313;71;33291;-75
2022/02/20 06:06:09;;;;;;;75.30;68.33;;;;;;;11.31;100.00;100740.62;2005187;71;32825;-74
2022/02/20 06:11:54;;;;;;;71.33;65.03;;;;;;;11.28;100.00;100745.39;2014517;71;33418;-75
2022/02/20 06:17:38;;;;;;;76.47;69.50;;;;;;;11.31;100.00;100753.13;2007307;71;33316;-74
2022/02/20 06:23:23;;;;;;;77.63;70.87;;;;;;;11.25;100.00;100751.54;2012985;71;32950;-75
2022/02/20 06:29:07;;;;;;;75.53;68.93;;;;;;;11.27;100.00;100719.52;2000198;71;32963;-76
2022/02/20 06:34:52;;;;;;;74.90;67.83;;;;;;;11.30;100.00;100719.48;2012826;71;33322;-75
2022/02/20 06:40:36;;;;;;;77.47;70.40;;;;;;;11.27;100.00;100711.19;2003414;71;32839;-74
2022/02/20 06:46:21;;;;;;;74.17;67.30;;;;;;;11.33;100.00;100728.66;2016458;71;33320;-76
2022/02/20 06:52:05;;;;;;;75.40;68.53;;;;;;;11.37;100.00;100708.88;2005675;71;32995;-74
2022/02/20 06:57:50;;;;;;;80.67;73.27;;;;;;;11.33;100.00;100713.36;1990993;71;32743;-73
2022/02/20 07:03:34;;;;;;;75.37;68.00;;;;;;;11.36;100.00;100712.77;2005778;71;33322;-73
2022/02/20 07:09:18;;;;;;;76.70;69.63;;;;;;;11.35;100.00;100719.45;1990980;71;32879;-75
2022/02/20 07:15:03;;;;;;;77.07;70.50;;;;;;;11.33;100.00;100698.07;2017939;71;32870;-74
2022/02/20 07:20:47;;;;;;;81.53;74.57;;;;;;;11.36;100.00;100692.74;1994739;71;32869;-74
2022/02/20 07:26:32;;;;;;;81.20;73.63;;;;;;;11.34;100.00;100686.63;2012429;71;32901;-73
2022/02/20 07:32:17;;;;;;;75.23;68.63;;;;;;;11.36;100.00;100703.03;1998072;71;33549;-75
2022/02/20 07:38:01;;;;;;;79.80;72.43;;;;;;;11.38;100.00;100720.27;2005361;71;32932;-74
2022/02/20 07:43:48;;;;;;;81.90;74.97;;;;;;;11.36;100.00;100713.59;1998634;71;32884;-72
2022/02/20 07:49:31;;;;;;;78.40;70.70;;;;;;;11.35;100.00;100727.78;2009556;71;33268;-73
2022/02/20 07:55:16;;;;;;;80.67;73.47;;;;;;;11.36;100.00;100708.59;1994540;71;32857;-74
2022/02/20 08:01:00;;;;;;;81.03;73.60;;;;;;;11.33;100.00;100692.51;2005314;71;32835;-74
2022/02/20 08:06:45;;;;;;;80.40;72.97;;;;;;;11.47;100.00;100707.35;1999881;71;32873;-72
2022/02/20 08:12:30;;;;;;;82.17;74.53;;;;;;;11.38;100.00;100698.02;2014559;71;33370;-75
2022/02/20 08:18:14;;;;;;;79.33;72.07;;;;;;;11.41;100.00;100698.25;2016129;71;32988;-73
2022/02/20 08:23:59;;;;;;;81.70;73.47;;;;;;;11.38;100.00;100686.31;2007547;71;32747;-75
2022/02/20 08:29:43;;;;;;;79.93;72.03;;;;;;;11.54;100.00;100690.33;2005803;71;33335;-74
2022/02/20 08:35:28;;;;;;;74.27;67.17;;;;;;;11.42;100.00;100701.28;2012550;71;33372;-73
2022/02/20 08:41:12;;;;;;;76.37;68.50;;;;;;;11.52;100.00;100682.27;2002208;71;30818;-75
2022/02/20 08:46:56;;;;;;;76.07;68.77;;;;;;;11.48;100.00;100666.46;2016125;71;32979;-75
2022/02/20 08:52:41;;;;;;;76.70;69.27;;;;;;;11.46;100.00;100661.77;1991024;71;32881;-75
2022/02/20 08:58:25;;;;;;;75.67;68.37;;;;;;;11.53;100.00;100655.28;1994719;71;32861;-74
2022/02/20 09:04:12;;;;;;;79.90;72.73;;;;;;;11.53;100.00;100654.72;2014260;71;32886;-73
2022/02/20 09:09:56;;;;;;;77.90;70.73;;;;;;;11.59;100.00;100641.03;1994833;71;32848;-74
2022/02/20 09:15:40;;;;;;;77.10;69.90;;;;;;;11.65;100.00;100641.22;2000262;71;33280;-73
2022/02/20 09:21:25;;;;;;;76.13;68.90;;;;;;;11.65;100.00;100627.87;2001671;71;33331;-75
2022/02/20 09:27:09;;;;;;;80.77;73.50;;;;;;;11.75;100.00;100621.66;1998525;71;32846;-74
2022/02/20 09:32:53;;;;;;;75.50;67.80;;;;;;;11.75;100.00;100631.95;2011187;71;32832;-74
2022/02/20 09:38:39;;;;;;;79.40;72.57;;;;;;;11.77;100.00;100631.91;2001945;71;32754;-74
2022/02/20 09:44:23;;;;;;;79.17;71.30;;;;;;;11.81;100.00;100626.56;1990899;71;32923;-74
2022/02/20 09:50:09;;;;;;;75.33;68.37;;;;;;;11.87;100.00;100625.38;1994700;71;32857;-74
2022/02/20 09:55:54;;;;;;;72.93;66.10;;;;;;;11.83;100.00;100597.33;2009214;71;32830;-74
2022/02/20 10:01:40;;;;;;;69.63;63.07;;;;;;;11.80;100.00;100608.23;1999837;70;32888;-73
2022/02/20 10:07:33;;;;;;;72.53;65.70;;;;;;;11.80;100.00;100590.15;2016241;71;33354;-72
2022/02/20 10:13:27;;;;;;;72.97;66.03;;;;;;;11.88;100.00;100596.43;1994307;71;32923;-73
2022/02/20 10:19:13;;;;;;;74.67;68.03;;;;;;;11.89;100.00;100579.17;1994804;70;32772;-75
2022/02/20 10:25:05;;;;;;;72.30;65.67;;;;;;;11.91;100.00;100574.11;2011316;71;34032;-73
2022/02/20 10:30:50;;;;;;;72.27;65.17;;;;;;;12.00;100.00;100561.18;2001637;71;32832;-74
2022/02/20 10:36:47;;;;;;;73.17;66.63;;;;;;;11.99;100.00;100573.44;2016572;71;32857;-74
2022/02/20 10:42:41;;;;;;;72.00;65.27;;;;;;;12.04;100.00;100576.98;2002689;71;32903;-73
2022/02/20 10:48:27;;;;;;;73.63;66.93;;;;;;;12.08;100.00;100564.67;2011260;71;32964;-72
2022/02/20 10:54:14;;;;;;;72.13;65.43;;;;;;;12.12;100.00;100564.33;2015989;71;32908;-74
2022/02/20 11:00:00;;;;;;;70.30;63.77;;;;;;;12.16;100.00;100565.38;2000241;71;32753;-74
2022/02/20 11:05:44;;;;;;;72.20;65.60;;;;;;;12.17;100.00;100560.08;1994725;71;32823;-74
2022/02/20 11:11:40;;;;;;;74.10;66.60;;;;;;;12.20;100.00;100532.44;2011079;70;32769;-75
2022/02/20 11:17:27;;;;;;;71.97;65.10;;;;;;;12.27;100.00;100498.09;2005046;71;33381;-74
2022/02/20 11:23:15;;;;;;;72.63;65.63;;;;;;;12.37;100.00;100491.49;2014347;71;32827;-74
2022/02/20 11:29:01;;;;;;;70.07;63.73;;;;;;;12.57;100.00;100487.53;2017920;70;30904;-74
2022/02/20 11:34:47;;;;;;;71.37;64.00;;;;;;;12.65;100.00;100483.46;2017904;71;32879;-74
2022/02/20 11:40:33;;;;;;;71.43;64.70;;;;;;;12.71;100.00;100498.93;2010571;71;33003;-73
2022/02/20 11:46:26;;;;;;;72.90;66.10;;;;;;;12.78;100.00;100470.67;2002156;71;32983;-74
2022/02/20 11:52:49;;;;;;;69.37;62.67;;;;;;;12.86;100.00;100474.13;2004023;71;33368;-75
2022/02/20 11:58:34;;;;;;;75.73;68.80;;;;;;;12.92;100.00;100488.80;2002200;71;33250;-75
2022/02/20 12:04:37;;;;;;;76.20;69.50;;;;;;;12.85;100.00;100466.06;2005628;71;32791;-74
2022/02/20 12:10:42;;;;;;;73.63;67.03;;;;;;;12.87;100.00;100447.91;1991000;71;32834;-74
2022/02/20 12:16:51;;;;;;;70.33;63.73;;;;;;;12.92;100.00;100405.17;2012660;71;33482;-74
2022/02/20 12:22:43;;;;;;;70.80;64.17;;;;;;;12.95;100.00;100405.36;2008816;70;33433;-74
2022/02/20 12:28:34;;;;;;;73.00;66.60;;;;;;;12.96;100.00;100398.66;2013034;71;33377;-75
2022/02/20 12:35:03;;;;;;;71.00;64.97;;;;;;;12.99;100.00;100385.48;2016132;71;32831;-73
2022/02/20 12:40:52;;;;;;;69.23;63.17;;;;;;;13.01;100.00;100369.81;2012767;71;32823;-73
2022/02/20 12:46:37;;;;;;;66.13;60.63;;;;;;;12.99;100.00;100357.60;2005272;71;32852;-74
2022/02/20 12:52:21;;;;;;;72.00;65.77;;;;;;;12.92;100.00;100346.63;2014516;71;32815;-74
2022/02/20 12:58:12;;;;;;;69.63;63.87;;;;;;;12.79;100.00;100338.55;2016296;71;33326;-75
2022/02/20 13:03:57;;;;;;;69.60;63.90;;;;;;;12.71;100.00;100341.48;2007653;71;33339;-74
2022/02/20 13:09:52;;;;;;;67.53;62.07;;;;;;;12.65;100.00;100303.73;1996477;71;32935;-74
2022/02/20 13:15:44;;;;;;;67.63;62.00;;;;;;;12.67;100.00;100307.02;1991124;71;33241;-74
2022/02/20 13:21:33;;;;;;;72.47;66.63;;;;;;;12.74;100.00;100279.57;2006903;71;32822;-75
2022/02/20 13:27:15;;;;;;;67.43;61.73;;;;;;;12.88;100.00;100270.35;1996498;71;32818;-75
2022/02/20 13:33:11;;;;;;;73.47;67.70;;;;;;;12.53;100.00;100261.67;2010853;71;32846;-74
2022/02/20 13:39:09;;;;;;;71.70;65.83;;;;;;;12.54;100.00;100254.10;2003943;71;32846;-73
2022/02/20 13:45:07;;;;;;;72.23;66.07;;;;;;;12.53;100.00;100233.81;2012420;71;33052;-77
2022/02/20 13:50:51;;;;;;;78.57;71.33;;;;;;;12.54;100.00;100217.33;1996723;71;33218;-77
2022/02/20 13:56:47;;;;;;;74.83;67.97;;;;;;;12.56;100.00;100195.56;2005801;71;33324;-77
2022/02/20 14:02:40;;;;;;;69.70;63.00;;;;;;;12.59;100.00;100190.75;2016114;71;32918;-74
2022/02/20 14:08:38;;;;;;;70.20;63.43;;;;;;;12.55;100.00;100172.19;2014144;71;31003;-75
2022/02/20 14:14:28;;;;;;;71.07;63.90;;;;;;;12.65;100.00;100128.20;1994824;71;32764;-75
2022/02/20 14:20:13;;;;;;;71.80;65.17;;;;;;;12.67;100.00;100115.33;2014396;71;33307;-74
2022/02/20 14:26:03;;;;;;;75.07;68.37;;;;;;;12.72;100.00;100103.49;1996772;71;33245;-74
2022/02/20 14:31:46;;;;;;;78.83;71.73;;;;;;;12.74;100.00;100094.83;2016288;71;32936;-75
2022/02/20 14:37:38;;;;;;;70.50;63.90;;;;;;;12.80;100.00;100072.63;2008859;71;32936;-75
2022/02/20 14:43:24;;;;;;;70.30;64.07;;;;;;;12.89;100.00;100045.64;2016213;71;32964;-75
2022/02/20 14:49:08;;;;;;;68.60;62.57;;;;;;;12.95;100.00;100031.00;2005801;71;33087;-76
2022/02/20 14:54:52;;;;;;;73.23;66.93;;;;;;;13.01;100.00;100008.22;2016300;71;32831;-76
2022/02/20 15:00:37;;;;;;;79.23;72.47;;;;;;;13.00;100.00;99983.47;2016162;71;32831;-76
2022/02/20 15:06:21;;;;;;;74.57;68.27;;;;;;;12.97;100.00;99974.34;1996517;71;33281;-71
2022/02/20 15:12:08;;;;;;;76.93;70.37;;;;;;;13.10;100.00;99953.89;2014386;71;32826;-71
2022/02/20 15:17:52;;;;;;;74.57;68.10;;;;;;;12.90;100.00;99948.34;2001985;71;32837;-72
2022/02/20 15:23:37;;;;;;;72.93;66.47;;;;;;;12.91;100.00;99914.33;2014346;71;32896;-71
2022/02/20 15:29:22;;;;;;;73.97;67.70;;;;;;;12.90;100.00;99909.89;2007541;71;32866;-73
2022/02/20 15:35:08;;;;;;;69.60;63.47;;;;;;;12.82;100.00;99880.04;1999780;71;32847;-74
2022/02/20 15:40:54;;;;;;;78.67;70.73;;;;;;;12.75;100.00;99874.34;2003711;71;32974;-71
2022/02/20 15:46:38;;;;;;;71.57;65.33;;;;;;;12.90;100.00;99867.52;2003416;71;32906;-71
2022/02/20 15:52:23;;;;;;;68.77;62.63;;;;;;;12.83;100.00;99844.06;2016092;71;33267;-72
2022/02/20 15:58:07;;;;;;;70.33;63.80;;;;;;;12.81;100.00;99829.05;2010834;71;32904;-72
2022/02/20 16:03:51;;;;;;;67.47;61.40;;;;;;;12.82;100.00;99847.42;1986453;71;32926;-72
2022/02/20 16:09:35;;;;;;;68.17;62.13;;;;;;;12.94;100.00;99798.00;2007084;71;33267;-71
2022/02/20 16:15:21;;;;;;;71.37;65.07;;;;;;;12.94;100.00;99783.50;2009142;71;32764;-71
2022/02/20 16:21:05;;;;;;;70.70;64.70;;;;;;;13.02;100.00;99748.41;2016219;70;32835;-71
2022/02/20 16:26:51;;;;;;;76.53;69.43;;;;;;;12.95;100.00;99732.76;1991104;71;32828;-72
2022/02/20 16:32:36;;;;;;;73.27;66.67;;;;;;;12.96;100.00;99698.17;2012463;71;32841;-73
2022/02/20 16:38:21;;;;;;;68.23;61.93;;;;;;;12.93;100.00;99670.36;2005714;71;33242;-71
2022/02/20 16:44:06;;;;;;;67.43;61.43;;;;;;;12.85;100.00;99628.57;2009379;71;32978;-74
2022/02/20 16:49:51;;;;;;;64.20;58.53;;;;;;;12.91;100.00;99605.79;2011112;71;32891;-71
2022/02/20 16:55:36;;;;;;;64.73;59.07;;;;;;;12.96;100.00;99577.75;2008771;71;32878;-74
2022/02/20 17:01:20;;;;;;;68.10;61.47;;;;;;;13.02;100.00;99553.28;2000331;71;33192;-69
2022/02/20 17:07:05;;;;;;;70.30;64.43;;;;;;;12.96;100.00;99538.73;1994667;71;32869;-71
2022/02/20 17:12:50;;;;;;;66.03;59.93;;;;;;;12.92;100.00;99541.13;2002100;71;33299;-71
2022/02/20 17:18:35;;;;;;;68.23;62.07;;;;;;;12.96;100.00;99510.86;2004054;71;32740;-70
2022/02/20 17:24:19;;;;;;;68.37;62.10;;;;;;;13.00;100.00;99513.79;1994465;71;32919;-73
2022/02/20 17:30:06;;;;;;;70.20;63.73;;;;;;;12.78;100.00;99470.27;2000192;71;32954;-71
2022/02/20 17:35:50;;;;;;;71.10;64.83;;;;;;;12.75;100.00;99465.34;2014585;71;33327;-73
2022/02/20 17:41:35;;;;;;;73.50;66.93;;;;;;;12.58;100.00;99464.82;1991002;71;32835;-72
2022/02/20 17:47:20;;;;;;;65.77;59.83;;;;;;;12.37;100.00;99423.52;2000439;71;33331;-73
2022/02/20 17:53:05;;;;;;;66.17;59.73;;;;;;;12.42;100.00;99428.09;1996946;71;32908;-72
2022/02/20 17:58:51;;;;;;;66.73;60.80;;;;;;;12.34;100.00;99421.41;2016133;71;32863;-73
2022/02/20 18:04:36;;;;;;;58.53;52.87;;;;;;;12.36;100.00;99395.46;1977260;71;32883;-74
2022/02/20 18:10:22;;;;;;;64.00;58.13;;;;;;;12.42;100.00;99398.86;2005816;71;32993;-73
2022/02/20 18:16:07;;;;;;;59.53;53.77;;;;;;;12.41;100.00;99375.77;1990953;71;32853;-78
2022/02/20 18:21:52;;;;;;;61.33;55.47;;;;;;;12.47;100.00;99393.94;2011135;71;32805;-74
2022/02/20 18:27:36;;;;;;;61.57;56.07;;;;;;;12.45;100.00;99417.11;1994380;71;33311;-75
2022/02/20 18:33:22;;;;;;;62.60;57.23;;;;;;;12.40;100.00;99431.23;2008989;71;33437;-72
2022/02/20 18:39:08;;;;;;;62.97;57.97;;;;;;;12.48;100.00;99490.83;2007092;71;33257;-75
2022/02/20 18:44:52;;;;;;;66.07;60.77;;;;;;;12.36;100.00;99491.52;2014411;71;32800;-74
2022/02/20 18:50:36;;;;;;;61.97;57.60;;;;;;;12.13;100.00;99481.14;2000166;71;32890;-72
2022/02/20 18:56:21;;;;;;;69.13;64.00;;;;;;;11.99;100.00;99546.45;2014302;71;32870;-74
2022/02/20 19:02:06;;;;;;;73.97;69.07;;;;;;;10.85;100.00;99645.03;1991158;71;32920;-77
2022/02/20 19:07:50;;;;;;;71.17;66.37;;;;;;;10.24;100.00;99723.37;2010072;71;32848;-77
2022/02/20 19:13:35;;;;;;;66.87;62.27;;;;;;;9.81;100.00;99764.44;2009577;71;33337;-76
2022/02/20 19:19:21;;;;;;;68.10;63.63;;;;;;;9.46;100.00;99709.66;2014403;71;32938;-73
2022/02/20 19:25:07;;;;;;;65.90;61.50;;;;;;;9.37;100.00;99722.01;2005172;71;32942;-74
2022/02/20 19:30:52;;;;;;;65.27;61.27;;;;;;;9.12;100.00;99754.31;2005455;71;33456;-74
2022/02/20 19:36:36;;;;;;;63.40;59.13;;;;;;;9.05;100.00;99777.44;2008805;71;32862;-73
2022/02/20 19:42:20;;;;;;;60.37;56.27;;;;;;;9.01;100.00;99804.09;1994542;71;32890;-71
2022/02/20 19:48:06;;;;;;;63.70;59.50;;;;;;;9.06;100.00;99835.87;2004226;71;32839;-72
2022/02/20 19:53:53;;;;;;;64.10;59.70;;;;;;;9.08;100.00;99868.23;2009614;71;32789;-81
2022/02/20 19:59:39;;;;;;;66.67;62.13;;;;;;;8.95;100.00;99854.56;1971133;73;32983;-81
2022/02/20 20:05:24;;;;;;;57.50;53.80;;;;;;;8.76;100.00;99858.45;2016436;71;33377;-81
2022/02/20 20:11:10;;;;;;;51.60;48.60;;;;;;;8.64;100.00;99881.04;1994852;71;32911;-74
2022/02/20 20:16:55;;;;;;;46.87;44.37;;;;;;;8.49;100.00;99886.19;2016488;71;32907;-76
2022/02/20 20:22:40;;;;;;;57.77;54.50;;;;;;;8.33;100.00;99899.94;2009156;71;32940;-75
2022/02/20 20:28:26;;;;;;;58.20;54.57;;;;;;;8.22;100.00;99919.09;1995065;71;33195;-76
2022/02/20 20:34:11;;;;;;;60.80;57.40;;;;;;;8.23;100.00;99957.55;1991418;71;32782;-76
2022/02/20 20:39:55;;;;;;;52.77;49.80;;;;;;;8.20;100.00;99970.58;1998666;71;32806;-78
2022/02/20 20:45:40;;;;;;;49.00;46.20;;;;;;;8.23;100.00;100010.11;1994797;71;32785;-76
2022/02/20 20:51:24;;;;;;;51.63;48.80;;;;;;;8.08;100.00;100007.48;2016688;71;32837;-75
2022/02/20 20:57:10;;;;;;;50.67;47.67;;;;;;;8.18;100.00;100023.14;2016376;71;32827;-76
2022/02/20 21:02:54;;;;;;;51.67;48.80;;;;;;;8.13;100.00;100032.86;2014449;71;33318;-74
2022/02/20 21:08:39;;;;;;;53.60;50.60;;;;;;;7.90;100.00;100044.67;2012730;71;32977;-76
2022/02/20 21:14:23;;;;;;;54.30;51.03;;;;;;;7.77;100.00;100056.65;2016290;71;33401;-74
2022/02/20 21:20:12;;;;;;;50.90;48.03;;;;;;;7.75;100.00;100084.28;2007179;71;32835;-73
2022/02/20 21:25:56;;;;;;;39.73;37.33;;;;;;;7.62;100.00;100109.78;1990954;71;32777;-74
2022/02/20 21:31:43;;;;;;;39.43;37.33;;;;;;;7.62;100.00;100131.89;1998165;71;33514;-74
2022/02/20 21:37:28;;;;;;;46.20;43.80;;;;;;;7.50;100.00;100150.19;2014610;71;32844;-73
2022/02/20 21:43:14;;;;;;;53.70;50.87;;;;;;;7.37;100.00;100154.09;2010745;71;32893;-71
2022/02/20 21:48:59;;;;;;;51.97;49.33;;;;;;;7.26;100.00;100179.00;2000546;70;33190;-71
2022/02/20 21:54:47;;;;;;;54.60;51.70;;;;;;;7.15;100.00;100198.61;1991016;71;32786;-72
2022/02/20 22:00:34;;;;;;;52.87;50.07;;;;;;;7.02;100.00;100214.37;2005981;71;33342;-72
2022/02/20 22:06:17;;;;;;;52.90;49.90;;;;;;;7.00;100.00;100236.75;1991107;71;32763;-73
2022/02/20 22:12:02;;;;;;;54.50;51.40;;;;;;;7.03;100.00;100249.16;2016253;71;33350;-74
2022/02/20 22:17:47;;;;;;;45.50;43.20;;;;;;;7.04;100.00;100253.05;1997919;71;32828;-73
2022/02/20 22:23:32;;;;;;;45.63;42.90;;;;;;;6.99;100.00;100245.30;2013078;71;32769;-74
2022/02/20 22:29:17;;;;;;;43.40;40.90;;;;;;;6.79;100.00;100276.50;1996679;71;32913;-74
2022/02/20 22:35:04;;;;;;;35.63;33.70;;;;;;;6.83;100.00;100280.36;2014259;71;32835;-72
2022/02/20 22:40:49;;;;;;;31.33;29.33;;;;;;;6.78;100.00;100288.63;2016045;71;32887;-74
2022/02/20 22:46:35;;;;;;;28.70;27.00;;;;;;;6.73;100.00;100301.05;1991016;71;32755;-72
2022/02/20 22:52:19;;;;;;;30.40;28.47;;;;;;;6.70;100.00;100316.23;1999713;71;32818;-74
2022/02/20 22:58:06;;;;;;;31.00;29.10;;;;;;;6.55;100.00;100333.27;2005085;71;32798;-71
2022/02/20 23:03:59;;;;;;;30.87;28.63;;;;;;;6.66;100.00;100343.26;1986956;71;33270;-72
2022/02/20 23:09:44;;;;;;;32.57;30.67;;;;;;;6.60;100.00;100349.85;2012909;71;32845;-73
2022/02/20 23:15:29;;;;;;;30.17;28.27;;;;;;;6.57;100.00;100369.17;2010771;71;33357;-73
2022/02/20 23:21:15;;;;;;;31.43;29.43;;;;;;;6.50;100.00;100347.08;1994921;71;32742;-73
2022/02/20 23:27:01;;;;;;;31.13;29.17;;;;;;;6.48;100.00;100362.52;2016326;71;32863;-72
2022/02/20 23:32:46;;;;;;;36.10;33.90;;;;;;;6.48;100.00;100344.58;2010874;71;32891;-73
2022/02/20 23:38:33;;;;;;;36.53;34.23;;;;;;;6.43;100.00;100382.34;2016051;71;32873;-73
2022/02/20 23:44:19;;;;;;;39.50;36.80;;;;;;;6.34;100.00;100362.72;2000443;71;33220;-75
2022/02/20 23:50:09;;;;;;;35.17;33.07;;;;;;;6.33;100.00;100370.16;2008823;70;32959;-73
2022/02/20 23:55:56;;;;;;;38.13;35.77;;;;;;;6.34;100.00;100348.92;2009332;71;32826;-72
